sensor_id;sensor_type;location;lat;lon;timestamp;temperature;humidity
16273;DHT22;8244;50.044;9.006;2022-07-10T00:04:05;15.10;99.90
16273;DHT22;8244;50.044;9.006;2022-07-10T00:09:07;15.10;99.90
16273;DHT22;8244;50.044;9.006;2022-07-10T00:14:09;15.10;99.90
16273;DHT22;8244;50.044;9.006;2022-07-10T00:19:12;15.00;99.90
16273;DHT22;8244;50.044;9.006;2022-07-10T00:24:14;14.90;99.90
16273;DHT22;8244;50.044;9.006;2022-07-10T00:29:16;14.90;99.90
16273;DHT22;8244;50.044;9.006;2022-07-10T00:34:19;14.90;99.90
16273;DHT22;8244;50.044;9.006;2022-07-10T00:39:20;14.80;99.90
16273;DHT22;8244;50.044;9.006;2022-07-10T00:44:22;14.70;99.90
16273;DHT22;8244;50.044;9.006;2022-07-10T00:49:25;14.70;99.90
16273;DHT22;8244;50.044;9.006;2022-07-10T00:54:27;14.70;99.90
16273;DHT22;8244;50.044;9.006;2022-07-10T00:59:29;14.70;99.90
16273;DHT22;8244;50.044;9.006;2022-07-10T01:04:33;14.60;99.90
16273;DHT22;8244;50.044;9.006;2022-07-10T01:09:35;14.60;99.90
16273;DHT22;8244;50.044;9.006;2022-07-10T01:14:37;14.50;99.90
16273;DHT22;8244;50.044;9.006;2022-07-10T01:19:41;14.50;99.90
16273;DHT22;8244;50.044;9.006;2022-07-10T01:24:44;14.40;99.90
16273;DHT22;8244;50.044;9.006;2022-07-10T01:29:46;14.40;99.90
16273;DHT22;8244;50.044;9.006;2022-07-10T01:34:48;14.30;99.90
16273;DHT22;8244;50.044;9.006;2022-07-10T01:39:52;14.20;99.90
16273;DHT22;8244;50.044;9.006;2022-07-10T01:44:53;14.20;99.90
16273;DHT22;8244;50.044;9.006;2022-07-10T01:49:55;14.10;99.90
16273;DHT22;8244;50.044;9.006;2022-07-10T01:54:58;14.10;99.90
16273;DHT22;8244;50.044;9.006;2022-07-10T02:00:00;14.00;99.90
16273;DHT22;8244;50.044;9.006;2022-07-10T02:05:02;13.90;99.90
16273;DHT22;8244;50.044;9.006;2022-07-10T02:10:05;13.90;99.90
16273;DHT22;8244;50.044;9.006;2022-07-10T02:15:07;13.90;99.90
16273;DHT22;8244;50.044;9.006;2022-07-10T02:20:10;13.80;99.90
16273;DHT22;8244;50.044;9.006;2022-07-10T02:25:13;13.70;99.90
16273;DHT22;8244;50.044;9.006;2022-07-10T02:30:15;13.70;99.90
16273;DHT22;8244;50.044;9.006;2022-07-10T02:35:17;13.60;99.90
16273;DHT22;8244;50.044;9.006;2022-07-10T02:40:20;13.60;99.90
16273;DHT22;8244;50.044;9.006;2022-07-10T02:45:22;13.50;99.90
16273;DHT22;8244;50.044;9.006;2022-07-10T02:50:24;13.50;99.90
16273;DHT22;8244;50.044;9.006;2022-07-10T02:55:27;13.50;99.90
16273;DHT22;8244;50.044;9.006;2022-07-10T03:00:29;13.40;99.90
16273;DHT22;8244;50.044;9.006;2022-07-10T03:05:31;13.30;99.90
16273;DHT22;8244;50.044;9.006;2022-07-10T03:10:34;13.30;99.90
16273;DHT22;8244;50.044;9.006;2022-07-10T03:15:36;13.20;99.90
16273;DHT22;8244;50.044;9.006;2022-07-10T03:20:38;13.20;99.90
16273;DHT22;8244;50.044;9.006;2022-07-10T03:25:41;13.20;99.90
16273;DHT22;8244;50.044;9.006;2022-07-10T03:30:42;13.10;99.90
16273;DHT22;8244;50.044;9.006;2022-07-10T03:35:44;13.10;99.90
16273;DHT22;8244;50.044;9.006;2022-07-10T03:40:47;13.20;99.90
16273;DHT22;8244;50.044;9.006;2022-07-10T03:45:49;13.20;99.90
16273;DHT22;8244;50.044;9.006;2022-07-10T03:50:51;13.20;99.90
16273;DHT22;8244;50.044;9.006;2022-07-10T03:55:54;13.30;99.90
16273;DHT22;8244;50.044;9.006;2022-07-10T04:00:56;13.30;99.90
16273;DHT22;8244;50.044;9.006;2022-07-10T04:05:58;13.40;99.90
16273;DHT22;8244;50.044;9.006;2022-07-10T04:11:01;13.40;99.90
16273;DHT22;8244;50.044;9.006;2022-07-10T04:16:03;13.50;99.90
16273;DHT22;8244;50.044;9.006;2022-07-10T04:21:05;13.60;99.90
16273;DHT22;8244;50.044;9.006;2022-07-10T04:26:08;13.70;99.90
16273;DHT22;8244;50.044;9.006;2022-07-10T04:31:09;13.80;99.90
16273;DHT22;8244;50.044;9.006;2022-07-10T04:36:11;14.00;99.90
16273;DHT22;8244;50.044;9.006;2022-07-10T04:41:14;14.20;99.90
16273;DHT22;8244;50.044;9.006;2022-07-10T04:46:16;14.30;99.90
16273;DHT22;8244;50.044;9.006;2022-07-10T04:51:18;14.40;99.90
16273;DHT22;8244;50.044;9.006;2022-07-10T04:56:21;14.50;99.90
16273;DHT22;8244;50.044;9.006;2022-07-10T05:01:23;14.60;99.90
16273;DHT22;8244;50.044;9.006;2022-07-10T05:06:24;14.70;99.90
16273;DHT22;8244;50.044;9.006;2022-07-10T05:11:27;14.70;99.90
16273;DHT22;8244;50.044;9.006;2022-07-10T05:16:29;14.80;99.90
16273;DHT22;8244;50.044;9.006;2022-07-10T05:21:31;15.00;99.90
16273;DHT22;8244;50.044;9.006;2022-07-10T05:26:34;15.10;99.90
16273;DHT22;8244;50.044;9.006;2022-07-10T05:31:36;15.20;99.90
16273;DHT22;8244;50.044;9.006;2022-07-10T05:36:38;15.30;99.90
16273;DHT22;8244;50.044;9.006;2022-07-10T05:41:41;15.50;99.90
16273;DHT22;8244;50.044;9.006;2022-07-10T05:46:43;15.70;99.90
16273;DHT22;8244;50.044;9.006;2022-07-10T05:51:44;16.10;99.90
16273;DHT22;8244;50.044;9.006;2022-07-10T05:56:47;16.50;99.90
16273;DHT22;8244;50.044;9.006;2022-07-10T06:01:49;16.70;99.90
16273;DHT22;8244;50.044;9.006;2022-07-10T06:06:51;16.90;99.90
16273;DHT22;8244;50.044;9.006;2022-07-10T06:11:54;17.10;99.90
16273;DHT22;8244;50.044;9.006;2022-07-10T06:16:55;17.40;99.90
16273;DHT22;8244;50.044;9.006;2022-07-10T06:21:57;17.70;99.90
16273;DHT22;8244;50.044;9.006;2022-07-10T06:27:18;18.30;99.90
16273;DHT22;8244;50.044;9.006;2022-07-10T06:32:20;19.10;99.90
16273;DHT22;8244;50.044;9.006;2022-07-10T06:37:22;20.20;99.90
16273;DHT22;8244;50.044;9.006;2022-07-10T06:42:25;21.60;99.90
16273;DHT22;8244;50.044;9.006;2022-07-10T06:47:27;23.20;96.30
16273;DHT22;8244;50.044;9.006;2022-07-10T06:52:46;24.40;91.20
16273;DHT22;8244;50.044;9.006;2022-07-10T06:57:49;24.90;88.00
16273;DHT22;8244;50.044;9.006;2022-07-10T07:02:51;25.00;84.40
16273;DHT22;8244;50.044;9.006;2022-07-10T07:07:53;24.30;81.00
16273;DHT22;8244;50.044;9.006;2022-07-10T07:12:56;23.70;82.80
16273;DHT22;8244;50.044;9.006;2022-07-10T07:18:00;23.70;85.80
16273;DHT22;8244;50.044;9.006;2022-07-10T07:23:12;23.90;81.60
16273;DHT22;8244;50.044;9.006;2022-07-10T07:28:15;23.90;80.80
16273;DHT22;8244;50.044;9.006;2022-07-10T07:33:18;23.90;78.90
16273;DHT22;8244;50.044;9.006;2022-07-10T07:38:20;24.00;79.20
16273;DHT22;8244;50.044;9.006;2022-07-10T07:43:23;23.80;78.90
16273;DHT22;8244;50.044;9.006;2022-07-10T07:48:25;23.50;79.00
16273;DHT22;8244;50.044;9.006;2022-07-10T07:53:26;23.40;79.90
16273;DHT22;8244;50.044;9.006;2022-07-10T07:58:30;23.20;76.80
16273;DHT22;8244;50.044;9.006;2022-07-10T08:03:31;22.90;76.70
16273;DHT22;8244;50.044;9.006;2022-07-10T08:08:33;22.80;79.60
16273;DHT22;8244;50.044;9.006;2022-07-10T08:13:36;22.80;76.10
16273;DHT22;8244;50.044;9.006;2022-07-10T08:18:38;22.50;76.80
16273;DHT22;8244;50.044;9.006;2022-07-10T08:23:40;22.40;78.40
16273;DHT22;8244;50.044;9.006;2022-07-10T08:28:43;22.50;77.50
16273;DHT22;8244;50.044;9.006;2022-07-10T08:33:44;22.30;78.10
16273;DHT22;8244;50.044;9.006;2022-07-10T08:38:46;22.30;78.70
16273;DHT22;8244;50.044;9.006;2022-07-10T08:43:50;22.30;78.20
16273;DHT22;8244;50.044;9.006;2022-07-10T08:48:53;22.10;77.90
16273;DHT22;8244;50.044;9.006;2022-07-10T08:53:56;22.00;78.50
16273;DHT22;8244;50.044;9.006;2022-07-10T08:59:01;21.90;80.00
16273;DHT22;8244;50.044;9.006;2022-07-10T09:04:03;22.00;79.40
16273;DHT22;8244;50.044;9.006;2022-07-10T09:09:06;22.00;79.30
16273;DHT22;8244;50.044;9.006;2022-07-10T09:14:11;22.10;79.40
16273;DHT22;8244;50.044;9.006;2022-07-10T09:19:18;22.10;79.10
16273;DHT22;8244;50.044;9.006;2022-07-10T09:24:21;22.30;78.90
16273;DHT22;8244;50.044;9.006;2022-07-10T09:29:25;22.50;79.20
16273;DHT22;8244;50.044;9.006;2022-07-10T09:34:37;22.60;77.30
16273;DHT22;8244;50.044;9.006;2022-07-10T09:39:54;22.70;77.70
16273;DHT22;8244;50.044;9.006;2022-07-10T09:45:17;23.00;79.20
16273;DHT22;8244;50.044;9.006;2022-07-10T09:50:21;23.20;76.20
16273;DHT22;8244;50.044;9.006;2022-07-10T09:55:24;23.30;77.70
16273;DHT22;8244;50.044;9.006;2022-07-10T10:00:30;23.60;74.70
16273;DHT22;8244;50.044;9.006;2022-07-10T10:05:36;23.50;75.30
16273;DHT22;8244;50.044;9.006;2022-07-10T10:10:42;23.60;74.60
16273;DHT22;8244;50.044;9.006;2022-07-10T10:15:47;23.90;74.90
16273;DHT22;8244;50.044;9.006;2022-07-10T10:20:51;24.50;74.10
16273;DHT22;8244;50.044;9.006;2022-07-10T10:25:54;25.10;73.70
16273;DHT22;8244;50.044;9.006;2022-07-10T10:30:59;25.60;73.40
16273;DHT22;8244;50.044;9.006;2022-07-10T10:36:01;26.20;71.50
16273;DHT22;8244;50.044;9.006;2022-07-10T10:41:22;26.30;70.80
16273;DHT22;8244;50.044;9.006;2022-07-10T10:46:26;26.70;68.60
16273;DHT22;8244;50.044;9.006;2022-07-10T10:51:56;26.80;64.90
16273;DHT22;8244;50.044;9.006;2022-07-10T10:57:11;26.40;68.00
16273;DHT22;8244;50.044;9.006;2022-07-10T11:02:26;26.40;67.50
16273;DHT22;8244;50.044;9.006;2022-07-10T11:07:50;26.70;69.60
16273;DHT22;8244;50.044;9.006;2022-07-10T11:12:58;27.70;68.40
16273;DHT22;8244;50.044;9.006;2022-07-10T11:18:04;28.10;67.00
16273;DHT22;8244;50.044;9.006;2022-07-10T11:28:40;28.00;66.00
16273;DHT22;8244;50.044;9.006;2022-07-10T11:33:45;27.90;66.70
16273;DHT22;8244;50.044;9.006;2022-07-10T11:38:56;28.60;63.60
16273;DHT22;8244;50.044;9.006;2022-07-10T11:43:59;28.90;61.20
16273;DHT22;8244;50.044;9.006;2022-07-10T11:49:04;29.20;60.80
16273;DHT22;8244;50.044;9.006;2022-07-10T11:54:09;29.20;61.40
16273;DHT22;8244;50.044;9.006;2022-07-10T11:59:14;28.70;62.30
16273;DHT22;8244;50.044;9.006;2022-07-10T12:04:19;28.30;63.50
16273;DHT22;8244;50.044;9.006;2022-07-10T12:09:23;28.70;64.20
16273;DHT22;8244;50.044;9.006;2022-07-10T12:14:26;29.20;62.20
16273;DHT22;8244;50.044;9.006;2022-07-10T12:19:30;29.00;61.80
16273;DHT22;8244;50.044;9.006;2022-07-10T12:24:34;29.40;62.90
16273;DHT22;8244;50.044;9.006;2022-07-10T12:29:36;30.20;59.10
16273;DHT22;8244;50.044;9.006;2022-07-10T12:34:41;30.10;58.00
16273;DHT22;8244;50.044;9.006;2022-07-10T12:39:47;29.50;58.40
16273;DHT22;8244;50.044;9.006;2022-07-10T12:44:49;29.00;58.60
16273;DHT22;8244;50.044;9.006;2022-07-10T12:49:54;28.60;60.80
16273;DHT22;8244;50.044;9.006;2022-07-10T12:55:05;29.20;60.50
16273;DHT22;8244;50.044;9.006;2022-07-10T13:00:08;29.10;59.90
16273;DHT22;8244;50.044;9.006;2022-07-10T13:05:25;28.70;59.80
16273;DHT22;8244;50.044;9.006;2022-07-10T13:10:26;28.40;60.60
16273;DHT22;8244;50.044;9.006;2022-07-10T13:15:29;28.20;60.50
16273;DHT22;8244;50.044;9.006;2022-07-10T13:20:32;28.30;59.70
16273;DHT22;8244;50.044;9.006;2022-07-10T13:25:33;28.40;60.90
16273;DHT22;8244;50.044;9.006;2022-07-10T13:30:35;28.30;61.40
16273;DHT22;8244;50.044;9.006;2022-07-10T13:35:39;28.00;61.50
16273;DHT22;8244;50.044;9.006;2022-07-10T13:40:41;28.10;61.80
16273;DHT22;8244;50.044;9.006;2022-07-10T13:45:44;28.20;62.00
16273;DHT22;8244;50.044;9.006;2022-07-10T13:50:47;28.10;62.00
16273;DHT22;8244;50.044;9.006;2022-07-10T13:55:50;28.00;62.30
16273;DHT22;8244;50.044;9.006;2022-07-10T14:00:51;27.60;60.20
16273;DHT22;8244;50.044;9.006;2022-07-10T14:05:54;27.10;62.90
16273;DHT22;8244;50.044;9.006;2022-07-10T14:10:56;26.90;63.60
16273;DHT22;8244;50.044;9.006;2022-07-10T14:15:58;26.70;63.20
16273;DHT22;8244;50.044;9.006;2022-07-10T14:21:01;26.40;64.80
16273;DHT22;8244;50.044;9.006;2022-07-10T14:26:08;26.20;66.10
16273;DHT22;8244;50.044;9.006;2022-07-10T14:31:10;25.90;66.10
16273;DHT22;8244;50.044;9.006;2022-07-10T14:36:13;25.70;66.50
16273;DHT22;8244;50.044;9.006;2022-07-10T14:41:15;25.60;66.40
16273;DHT22;8244;50.044;9.006;2022-07-10T14:46:16;25.40;67.80
16273;DHT22;8244;50.044;9.006;2022-07-10T14:51:20;25.50;67.70
16273;DHT22;8244;50.044;9.006;2022-07-10T14:56:22;25.70;68.10
16273;DHT22;8244;50.044;9.006;2022-07-10T15:01:24;25.90;68.10
16273;DHT22;8244;50.044;9.006;2022-07-10T15:06:27;26.10;66.80
16273;DHT22;8244;50.044;9.006;2022-07-10T15:11:29;26.30;67.60
16273;DHT22;8244;50.044;9.006;2022-07-10T15:16:30;26.30;66.70
16273;DHT22;8244;50.044;9.006;2022-07-10T15:21:34;26.20;66.00
16273;DHT22;8244;50.044;9.006;2022-07-10T15:26:36;26.20;66.50
16273;DHT22;8244;50.044;9.006;2022-07-10T15:31:37;26.00;66.70
16273;DHT22;8244;50.044;9.006;2022-07-10T15:36:40;25.90;66.60
16273;DHT22;8244;50.044;9.006;2022-07-10T15:41:42;25.90;67.40
16273;DHT22;8244;50.044;9.006;2022-07-10T15:46:46;25.70;66.80
16273;DHT22;8244;50.044;9.006;2022-07-10T15:51:50;25.30;67.90
16273;DHT22;8244;50.044;9.006;2022-07-10T15:56:51;25.00;68.80
16273;DHT22;8244;50.044;9.006;2022-07-10T16:01:55;24.70;69.80
16273;DHT22;8244;50.044;9.006;2022-07-10T16:06:58;24.40;71.30
16273;DHT22;8244;50.044;9.006;2022-07-10T16:12:00;24.10;72.00
16273;DHT22;8244;50.044;9.006;2022-07-10T16:17:02;24.00;73.30
16273;DHT22;8244;50.044;9.006;2022-07-10T16:22:05;23.90;73.80
16273;DHT22;8244;50.044;9.006;2022-07-10T16:27:07;23.80;73.80
16273;DHT22;8244;50.044;9.006;2022-07-10T16:32:09;23.80;74.90
16273;DHT22;8244;50.044;9.006;2022-07-10T16:37:12;23.70;75.00
16273;DHT22;8244;50.044;9.006;2022-07-10T16:42:14;23.50;74.90
16273;DHT22;8244;50.044;9.006;2022-07-10T16:47:16;23.40;75.40
16273;DHT22;8244;50.044;9.006;2022-07-10T16:52:21;23.20;76.00
16273;DHT22;8244;50.044;9.006;2022-07-10T16:57:23;22.90;77.60
16273;DHT22;8244;50.044;9.006;2022-07-10T17:02:24;22.80;77.90
16273;DHT22;8244;50.044;9.006;2022-07-10T17:07:28;22.70;78.20
16273;DHT22;8244;50.044;9.006;2022-07-10T17:12:30;22.60;79.30
16273;DHT22;8244;50.044;9.006;2022-07-10T17:17:32;22.60;79.90
16273;DHT22;8244;50.044;9.006;2022-07-10T17:22:35;22.50;80.90
16273;DHT22;8244;50.044;9.006;2022-07-10T17:27:39;22.30;81.00
16273;DHT22;8244;50.044;9.006;2022-07-10T17:32:41;22.20;82.50
16273;DHT22;8244;50.044;9.006;2022-07-10T17:37:44;21.90;82.80
16273;DHT22;8244;50.044;9.006;2022-07-10T17:42:46;21.80;84.60
16273;DHT22;8244;50.044;9.006;2022-07-10T17:47:48;21.60;85.50
16273;DHT22;8244;50.044;9.006;2022-07-10T17:52:51;21.50;85.90
16273;DHT22;8244;50.044;9.006;2022-07-10T17:57:52;21.40;87.20
16273;DHT22;8244;50.044;9.006;2022-07-10T18:02:55;21.40;87.20
16273;DHT22;8244;50.044;9.006;2022-07-10T18:07:58;21.30;87.80
16273;DHT22;8244;50.044;9.006;2022-07-10T18:13:00;21.20;88.70
16273;DHT22;8244;50.044;9.006;2022-07-10T18:18:02;21.10;88.90
16273;DHT22;8244;50.044;9.006;2022-07-10T18:23:05;21.00;89.20
16273;DHT22;8244;50.044;9.006;2022-07-10T18:28:07;21.00;89.40
16273;DHT22;8244;50.044;9.006;2022-07-10T18:33:09;21.00;90.00
16273;DHT22;8244;50.044;9.006;2022-07-10T18:38:30;20.90;90.40
16273;DHT22;8244;50.044;9.006;2022-07-10T18:43:34;20.80;90.70
16273;DHT22;8244;50.044;9.006;2022-07-10T18:48:35;20.70;90.90
16273;DHT22;8244;50.044;9.006;2022-07-10T18:53:39;20.60;91.20
16273;DHT22;8244;50.044;9.006;2022-07-10T18:58:40;20.50;91.60
16273;DHT22;8244;50.044;9.006;2022-07-10T19:03:42;20.30;91.90
16273;DHT22;8244;50.044;9.006;2022-07-10T19:08:45;20.20;92.30
16273;DHT22;8244;50.044;9.006;2022-07-10T19:13:47;20.10;92.70
16273;DHT22;8244;50.044;9.006;2022-07-10T19:18:48;20.00;93.00
16273;DHT22;8244;50.044;9.006;2022-07-10T19:23:51;19.80;93.30
16273;DHT22;8244;50.044;9.006;2022-07-10T19:28:53;19.70;93.70
16273;DHT22;8244;50.044;9.006;2022-07-10T19:33:55;19.60;94.30
16273;DHT22;8244;50.044;9.006;2022-07-10T19:39:00;19.50;94.70
16273;DHT22;8244;50.044;9.006;2022-07-10T19:44:02;19.50;95.40
16273;DHT22;8244;50.044;9.006;2022-07-10T19:49:04;19.30;96.00
16273;DHT22;8244;50.044;9.006;2022-07-10T19:54:07;19.20;96.80
16273;DHT22;8244;50.044;9.006;2022-07-10T19:59:09;19.10;97.40
16273;DHT22;8244;50.044;9.006;2022-07-10T20:04:11;19.10;98.40
16273;DHT22;8244;50.044;9.006;2022-07-10T20:09:14;19.00;99.40
16273;DHT22;8244;50.044;9.006;2022-07-10T20:14:15;18.90;99.90
16273;DHT22;8244;50.044;9.006;2022-07-10T20:19:17;18.80;99.90
16273;DHT22;8244;50.044;9.006;2022-07-10T20:24:20;18.70;99.90
16273;DHT22;8244;50.044;9.006;2022-07-10T20:29:22;18.70;99.90
16273;DHT22;8244;50.044;9.006;2022-07-10T20:34:24;18.60;99.90
16273;DHT22;8244;50.044;9.006;2022-07-10T20:39:27;18.50;99.90
16273;DHT22;8244;50.044;9.006;2022-07-10T20:44:28;18.50;99.90
16273;DHT22;8244;50.044;9.006;2022-07-10T20:49:30;18.40;99.90
16273;DHT22;8244;50.044;9.006;2022-07-10T20:54:33;18.30;99.90
16273;DHT22;8244;50.044;9.006;2022-07-10T20:59:35;18.20;99.90
16273;DHT22;8244;50.044;9.006;2022-07-10T21:04:37;18.10;99.90
16273;DHT22;8244;50.044;9.006;2022-07-10T21:09:40;18.10;99.90
16273;DHT22;8244;50.044;9.006;2022-07-10T21:14:42;18.00;99.90
16273;DHT22;8244;50.044;9.006;2022-07-10T21:19:45;17.90;99.90
16273;DHT22;8244;50.044;9.006;2022-07-10T21:24:48;17.90;99.90
16273;DHT22;8244;50.044;9.006;2022-07-10T21:29:51;17.90;99.90
16273;DHT22;8244;50.044;9.006;2022-07-10T21:34:52;17.90;99.90
16273;DHT22;8244;50.044;9.006;2022-07-10T21:39:55;17.80;99.90
16273;DHT22;8244;50.044;9.006;2022-07-10T21:44:57;17.80;99.90
16273;DHT22;8244;50.044;9.006;2022-07-10T21:49:59;17.70;99.90
16273;DHT22;8244;50.044;9.006;2022-07-10T21:55:02;17.70;99.90
16273;DHT22;8244;50.044;9.006;2022-07-10T22:00:05;17.70;99.90
16273;DHT22;8244;50.044;9.006;2022-07-10T22:05:08;17.70;99.90
16273;DHT22;8244;50.044;9.006;2022-07-10T22:10:11;17.70;99.90
16273;DHT22;8244;50.044;9.006;2022-07-10T22:15:13;17.70;99.90
16273;DHT22;8244;50.044;9.006;2022-07-10T22:20:15;17.60;99.90
16273;DHT22;8244;50.044;9.006;2022-07-10T22:25:18;17.60;99.90
16273;DHT22;8244;50.044;9.006;2022-07-10T22:30:20;17.60;99.90
16273;DHT22;8244;50.044;9.006;2022-07-10T22:35:36;17.60;99.90
16273;DHT22;8244;50.044;9.006;2022-07-10T22:40:39;17.60;99.90
16273;DHT22;8244;50.044;9.006;2022-07-10T22:45:40;17.60;99.90
16273;DHT22;8244;50.044;9.006;2022-07-10T22:50:42;17.60;99.90
16273;DHT22;8244;50.044;9.006;2022-07-10T22:55:45;17.60;99.90
16273;DHT22;8244;50.044;9.006;2022-07-10T23:00:48;17.60;99.90
16273;DHT22;8244;50.044;9.006;2022-07-10T23:05:50;17.50;99.90
16273;DHT22;8244;50.044;9.006;2022-07-10T23:10:54;17.50;99.90
16273;DHT22;8244;50.044;9.006;2022-07-10T23:15:56;17.50;99.90
16273;DHT22;8244;50.044;9.006;2022-07-10T23:20:58;17.50;99.90
16273;DHT22;8244;50.044;9.006;2022-07-10T23:26:01;17.40;99.90
16273;DHT22;8244;50.044;9.006;2022-07-10T23:31:02;17.40;99.90
16273;DHT22;8244;50.044;9.006;2022-07-10T23:36:04;17.40;99.90
16273;DHT22;8244;50.044;9.006;2022-07-10T23:41:07;17.30;99.90
16273;DHT22;8244;50.044;9.006;2022-07-10T23:46:09;17.30;99.90
16273;DHT22;8244;50.044;9.006;2022-07-10T23:51:11;17.30;99.90
16273;DHT22;8244;50.044;9.006;2022-07-10T23:56:14;17.20;99.90
